sensor_id;sensor_type;location;lat;lon;timestamp;P1;durP1;ratioP1;P2;durP2;ratioP2
70842;SDS011;58469;52.312;16.970;2024-02-21T00:01:23;15.90;;;4.47;;
70842;SDS011;58469;52.312;16.970;2024-02-21T00:04:24;19.20;;;5.00;;
70842;SDS011;58469;52.312;16.970;2024-02-21T00:07:24;12.57;;;4.47;;
70842;SDS011;58469;52.312;16.970;2024-02-21T00:10:25;12.43;;;4.53;;
70842;SDS011;58469;52.312;16.970;2024-02-21T00:13:25;14.32;;;4.90;;
70842;SDS011;58469;52.312;16.970;2024-02-21T00:16:26;10.70;;;5.00;;
70842;SDS011;58469;52.312;16.970;2024-02-21T00:19:26;10.13;;;3.30;;
70842;SDS011;58469;52.312;16.970;2024-02-21T00:22:27;10.87;;;4.80;;
70842;SDS011;58469;52.312;16.970;2024-02-21T00:25:29;15.23;;;4.57;;
70842;SDS011;58469;52.312;16.970;2024-02-21T00:28:29;10.50;;;3.97;;
70842;SDS011;58469;52.312;16.970;2024-02-21T00:31:29;17.80;;;4.47;;
70842;SDS011;58469;52.312;16.970;2024-02-21T00:34:30;14.40;;;5.30;;
70842;SDS011;58469;52.312;16.970;2024-02-21T00:37:31;15.37;;;3.87;;
70842;SDS011;58469;52.312;16.970;2024-02-21T00:40:31;14.77;;;3.85;;
70842;SDS011;58469;52.312;16.970;2024-02-21T00:43:32;14.90;;;4.30;;
70842;SDS011;58469;52.312;16.970;2024-02-21T00:46:32;18.73;;;5.87;;
70842;SDS011;58469;52.312;16.970;2024-02-21T00:49:33;11.73;;;5.30;;
70842;SDS011;58469;52.312;16.970;2024-02-21T00:52:33;11.07;;;3.60;;
70842;SDS011;58469;52.312;16.970;2024-02-21T00:55:33;12.80;;;4.10;;
70842;SDS011;58469;52.312;16.970;2024-02-21T00:58:34;18.00;;;5.07;;
70842;SDS011;58469;52.312;16.970;2024-02-21T01:01:34;10.37;;;4.47;;
70842;SDS011;58469;52.312;16.970;2024-02-21T01:04:35;15.23;;;5.13;;
70842;SDS011;58469;52.312;16.970;2024-02-21T01:07:35;15.63;;;5.13;;
70842;SDS011;58469;52.312;16.970;2024-02-21T01:10:35;16.53;;;4.70;;
70842;SDS011;58469;52.312;16.970;2024-02-21T01:13:36;17.90;;;4.50;;
70842;SDS011;58469;52.312;16.970;2024-02-21T01:16:36;13.52;;;5.28;;
70842;SDS011;58469;52.312;16.970;2024-02-21T01:19:37;8.53;;;3.53;;
70842;SDS011;58469;52.312;16.970;2024-02-21T01:22:37;12.93;;;4.93;;
70842;SDS011;58469;52.312;16.970;2024-02-21T01:25:40;13.73;;;4.40;;
70842;SDS011;58469;52.312;16.970;2024-02-21T01:28:40;12.98;;;4.90;;
70842;SDS011;58469;52.312;16.970;2024-02-21T01:31:41;10.23;;;4.07;;
70842;SDS011;58469;52.312;16.970;2024-02-21T01:34:42;13.03;;;4.40;;
70842;SDS011;58469;52.312;16.970;2024-02-21T01:37:42;12.40;;;4.37;;
70842;SDS011;58469;52.312;16.970;2024-02-21T01:40:42;11.63;;;4.18;;
70842;SDS011;58469;52.312;16.970;2024-02-21T01:43:43;12.20;;;4.50;;
70842;SDS011;58469;52.312;16.970;2024-02-21T01:46:43;10.53;;;3.37;;
70842;SDS011;58469;52.312;16.970;2024-02-21T01:49:43;15.37;;;4.43;;
70842;SDS011;58469;52.312;16.970;2024-02-21T01:52:45;18.20;;;4.85;;
70842;SDS011;58469;52.312;16.970;2024-02-21T01:55:48;9.88;;;4.45;;
70842;SDS011;58469;52.312;16.970;2024-02-21T01:58:49;15.53;;;4.23;;
70842;SDS011;58469;52.312;16.970;2024-02-21T02:01:51;12.77;;;4.50;;
70842;SDS011;58469;52.312;16.970;2024-02-21T02:04:52;12.27;;;4.40;;
70842;SDS011;58469;52.312;16.970;2024-02-21T02:07:54;12.65;;;4.22;;
70842;SDS011;58469;52.312;16.970;2024-02-21T02:10:54;12.85;;;4.65;;
70842;SDS011;58469;52.312;16.970;2024-02-21T02:13:55;16.90;;;4.77;;
70842;SDS011;58469;52.312;16.970;2024-02-21T02:16:55;14.03;;;4.40;;
70842;SDS011;58469;52.312;16.970;2024-02-21T02:19:55;12.67;;;4.83;;
70842;SDS011;58469;52.312;16.970;2024-02-21T02:22:56;13.23;;;6.00;;
70842;SDS011;58469;52.312;16.970;2024-02-21T02:25:59;15.15;;;4.40;;
70842;SDS011;58469;52.312;16.970;2024-02-21T02:29:01;13.98;;;4.47;;
70842;SDS011;58469;52.312;16.970;2024-02-21T02:32:02;11.68;;;4.18;;
70842;SDS011;58469;52.312;16.970;2024-02-21T02:35:02;11.60;;;4.10;;
70842;SDS011;58469;52.312;16.970;2024-02-21T02:38:03;14.23;;;4.60;;
70842;SDS011;58469;52.312;16.970;2024-02-21T02:41:04;14.00;;;4.28;;
70842;SDS011;58469;52.312;16.970;2024-02-21T02:44:05;12.43;;;4.35;;
70842;SDS011;58469;52.312;16.970;2024-02-21T02:47:05;12.07;;;4.40;;
70842;SDS011;58469;52.312;16.970;2024-02-21T02:50:06;10.17;;;3.80;;
70842;SDS011;58469;52.312;16.970;2024-02-21T02:53:07;11.88;;;4.10;;
70842;SDS011;58469;52.312;16.970;2024-02-21T02:56:13;12.60;;;3.70;;
70842;SDS011;58469;52.312;16.970;2024-02-21T02:59:14;10.38;;;3.47;;
70842;SDS011;58469;52.312;16.970;2024-02-21T03:02:14;8.07;;;3.13;;
70842;SDS011;58469;52.312;16.970;2024-02-21T03:05:15;12.00;;;4.33;;
70842;SDS011;58469;52.312;16.970;2024-02-21T03:08:17;8.68;;;3.33;;
70842;SDS011;58469;52.312;16.970;2024-02-21T03:11:18;11.20;;;3.17;;
70842;SDS011;58469;52.312;16.970;2024-02-21T03:14:18;12.53;;;3.70;;
70842;SDS011;58469;52.312;16.970;2024-02-21T03:17:19;11.63;;;3.80;;
70842;SDS011;58469;52.312;16.970;2024-02-21T03:20:19;12.10;;;4.23;;
70842;SDS011;58469;52.312;16.970;2024-02-21T03:23:19;14.30;;;4.43;;
70842;SDS011;58469;52.312;16.970;2024-02-21T03:26:20;13.85;;;4.40;;
70842;SDS011;58469;52.312;16.970;2024-02-21T03:29:20;9.13;;;3.85;;
70842;SDS011;58469;52.312;16.970;2024-02-21T03:32:20;11.70;;;4.67;;
70842;SDS011;58469;52.312;16.970;2024-02-21T03:35:21;12.30;;;4.20;;
70842;SDS011;58469;52.312;16.970;2024-02-21T03:38:21;14.57;;;5.37;;
70842;SDS011;58469;52.312;16.970;2024-02-21T03:41:22;11.20;;;4.23;;
70842;SDS011;58469;52.312;16.970;2024-02-21T03:44:22;19.23;;;6.27;;
70842;SDS011;58469;52.312;16.970;2024-02-21T03:47:22;15.70;;;5.50;;
70842;SDS011;58469;52.312;16.970;2024-02-21T03:50:23;11.13;;;5.43;;
70842;SDS011;58469;52.312;16.970;2024-02-21T03:53:24;14.18;;;5.20;;
70842;SDS011;58469;52.312;16.970;2024-02-21T03:56:24;13.83;;;4.70;;
70842;SDS011;58469;52.312;16.970;2024-02-21T03:59:24;15.97;;;5.43;;
70842;SDS011;58469;52.312;16.970;2024-02-21T04:02:25;14.70;;;4.13;;
70842;SDS011;58469;52.312;16.970;2024-02-21T04:05:25;11.15;;;4.95;;
70842;SDS011;58469;52.312;16.970;2024-02-21T04:08:27;10.97;;;4.53;;
70842;SDS011;58469;52.312;16.970;2024-02-21T04:11:27;16.43;;;5.17;;
70842;SDS011;58469;52.312;16.970;2024-02-21T04:14:27;15.88;;;5.00;;
70842;SDS011;58469;52.312;16.970;2024-02-21T04:17:28;14.00;;;5.30;;
70842;SDS011;58469;52.312;16.970;2024-02-21T04:20:28;12.07;;;4.47;;
70842;SDS011;58469;52.312;16.970;2024-02-21T04:23:30;14.50;;;5.45;;
70842;SDS011;58469;52.312;16.970;2024-02-21T04:26:30;13.47;;;5.13;;
70842;SDS011;58469;52.312;16.970;2024-02-21T04:29:30;12.43;;;5.17;;
70842;SDS011;58469;52.312;16.970;2024-02-21T04:32:30;12.23;;;5.00;;
70842;SDS011;58469;52.312;16.970;2024-02-21T04:35:31;16.53;;;5.63;;
70842;SDS011;58469;52.312;16.970;2024-02-21T04:38:31;13.07;;;5.50;;
70842;SDS011;58469;52.312;16.970;2024-02-21T04:41:32;11.37;;;5.00;;
70842;SDS011;58469;52.312;16.970;2024-02-21T04:44:32;21.13;;;6.32;;
70842;SDS011;58469;52.312;16.970;2024-02-21T04:47:32;17.08;;;5.88;;
70842;SDS011;58469;52.312;16.970;2024-02-21T04:50:33;14.57;;;5.87;;
70842;SDS011;58469;52.312;16.970;2024-02-21T04:53:33;16.37;;;5.93;;
70842;SDS011;58469;52.312;16.970;2024-02-21T04:56:34;15.47;;;4.50;;
70842;SDS011;58469;52.312;16.970;2024-02-21T04:59:34;12.63;;;5.50;;
70842;SDS011;58469;52.312;16.970;2024-02-21T05:02:35;15.75;;;5.35;;
70842;SDS011;58469;52.312;16.970;2024-02-21T05:05:35;20.00;;;8.00;;
70842;SDS011;58469;52.312;16.970;2024-02-21T05:08:35;17.33;;;5.63;;
70842;SDS011;58469;52.312;16.970;2024-02-21T05:11:36;16.00;;;5.17;;
70842;SDS011;58469;52.312;16.970;2024-02-21T05:14:40;13.30;;;5.90;;
70842;SDS011;58469;52.312;16.970;2024-02-21T05:17:40;15.10;;;4.43;;
70842;SDS011;58469;52.312;16.970;2024-02-21T05:20:42;13.52;;;5.00;;
70842;SDS011;58469;52.312;16.970;2024-02-21T05:23:42;13.17;;;5.30;;
70842;SDS011;58469;52.312;16.970;2024-02-21T05:26:43;13.57;;;4.47;;
70842;SDS011;58469;52.312;16.970;2024-02-21T05:29:43;17.03;;;5.90;;
70842;SDS011;58469;52.312;16.970;2024-02-21T05:32:44;15.25;;;5.10;;
70842;SDS011;58469;52.312;16.970;2024-02-21T05:35:44;10.63;;;4.60;;
70842;SDS011;58469;52.312;16.970;2024-02-21T05:38:46;14.32;;;5.00;;
70842;SDS011;58469;52.312;16.970;2024-02-21T05:41:46;17.58;;;5.63;;
70842;SDS011;58469;52.312;16.970;2024-02-21T05:44:46;10.73;;;4.97;;
70842;SDS011;58469;52.312;16.970;2024-02-21T05:47:47;17.90;;;5.87;;
70842;SDS011;58469;52.312;16.970;2024-02-21T05:50:47;16.17;;;6.83;;
70842;SDS011;58469;52.312;16.970;2024-02-21T05:53:47;22.13;;;6.57;;
70842;SDS011;58469;52.312;16.970;2024-02-21T05:56:48;20.10;;;7.07;;
70842;SDS011;58469;52.312;16.970;2024-02-21T05:59:48;20.07;;;7.00;;
70842;SDS011;58469;52.312;16.970;2024-02-21T06:02:48;15.30;;;5.80;;
70842;SDS011;58469;52.312;16.970;2024-02-21T06:05:50;13.00;;;6.28;;
70842;SDS011;58469;52.312;16.970;2024-02-21T06:08:51;9.10;;;4.57;;
70842;SDS011;58469;52.312;16.970;2024-02-21T06:11:51;14.40;;;5.60;;
70842;SDS011;58469;52.312;16.970;2024-02-21T06:14:52;18.08;;;5.90;;
70842;SDS011;58469;52.312;16.970;2024-02-21T06:17:52;14.48;;;5.47;;
70842;SDS011;58469;52.312;16.970;2024-02-21T06:20:53;14.53;;;6.03;;
70842;SDS011;58469;52.312;16.970;2024-02-21T06:23:53;20.73;;;6.93;;
70842;SDS011;58469;52.312;16.970;2024-02-21T06:26:53;12.40;;;4.80;;
70842;SDS011;58469;52.312;16.970;2024-02-21T06:29:54;12.57;;;4.97;;
70842;SDS011;58469;52.312;16.970;2024-02-21T06:32:54;14.70;;;5.03;;
70842;SDS011;58469;52.312;16.970;2024-02-21T06:35:57;19.90;;;7.30;;
70842;SDS011;58469;52.312;16.970;2024-02-21T06:38:58;17.90;;;6.47;;
70842;SDS011;58469;52.312;16.970;2024-02-21T06:41:59;11.20;;;5.20;;
70842;SDS011;58469;52.312;16.970;2024-02-21T06:44:59;16.40;;;6.28;;
70842;SDS011;58469;52.312;16.970;2024-02-21T06:47:59;19.27;;;6.37;;
70842;SDS011;58469;52.312;16.970;2024-02-21T06:51:00;27.43;;;6.83;;
70842;SDS011;58469;52.312;16.970;2024-02-21T06:54:00;11.87;;;5.57;;
70842;SDS011;58469;52.312;16.970;2024-02-21T06:57:01;18.83;;;5.63;;
70842;SDS011;58469;52.312;16.970;2024-02-21T07:00:01;14.63;;;5.37;;
70842;SDS011;58469;52.312;16.970;2024-02-21T07:03:02;13.90;;;5.38;;
70842;SDS011;58469;52.312;16.970;2024-02-21T07:06:03;15.83;;;6.03;;
70842;SDS011;58469;52.312;16.970;2024-02-21T07:09:04;13.63;;;5.80;;
70842;SDS011;58469;52.312;16.970;2024-02-21T07:12:04;15.53;;;5.63;;
70842;SDS011;58469;52.312;16.970;2024-02-21T07:15:05;15.57;;;5.40;;
70842;SDS011;58469;52.312;16.970;2024-02-21T07:18:05;10.38;;;5.40;;
70842;SDS011;58469;52.312;16.970;2024-02-21T07:21:05;15.48;;;6.07;;
70842;SDS011;58469;52.312;16.970;2024-02-21T07:24:06;22.10;;;6.93;;
70842;SDS011;58469;52.312;16.970;2024-02-21T07:27:07;16.17;;;5.33;;
70842;SDS011;58469;52.312;16.970;2024-02-21T07:30:08;10.57;;;5.23;;
70842;SDS011;58469;52.312;16.970;2024-02-21T07:33:08;15.15;;;5.90;;
70842;SDS011;58469;52.312;16.970;2024-02-21T07:36:10;10.50;;;5.03;;
70842;SDS011;58469;52.312;16.970;2024-02-21T07:39:11;8.88;;;4.68;;
70842;SDS011;58469;52.312;16.970;2024-02-21T07:42:11;18.30;;;6.30;;
70842;SDS011;58469;52.312;16.970;2024-02-21T07:45:12;14.37;;;6.00;;
70842;SDS011;58469;52.312;16.970;2024-02-21T07:48:12;13.20;;;5.50;;
70842;SDS011;58469;52.312;16.970;2024-02-21T07:51:12;16.00;;;6.23;;
70842;SDS011;58469;52.312;16.970;2024-02-21T07:54:13;13.25;;;4.88;;
70842;SDS011;58469;52.312;16.970;2024-02-21T07:57:14;17.30;;;5.77;;
70842;SDS011;58469;52.312;16.970;2024-02-21T08:00:14;12.70;;;5.37;;
70842;SDS011;58469;52.312;16.970;2024-02-21T08:03:19;10.85;;;5.55;;
70842;SDS011;58469;52.312;16.970;2024-02-21T08:06:20;15.10;;;5.85;;
70842;SDS011;58469;52.312;16.970;2024-02-21T08:09:24;11.43;;;5.33;;
70842;SDS011;58469;52.312;16.970;2024-02-21T08:12:24;12.60;;;5.60;;
70842;SDS011;58469;52.312;16.970;2024-02-21T08:15:24;11.77;;;5.40;;
70842;SDS011;58469;52.312;16.970;2024-02-21T08:18:29;14.07;;;5.43;;
70842;SDS011;58469;52.312;16.970;2024-02-21T08:21:29;13.80;;;4.75;;
70842;SDS011;58469;52.312;16.970;2024-02-21T08:24:30;13.50;;;5.03;;
70842;SDS011;58469;52.312;16.970;2024-02-21T08:27:30;12.43;;;5.27;;
70842;SDS011;58469;52.312;16.970;2024-02-21T08:30:30;11.93;;;5.23;;
70842;SDS011;58469;52.312;16.970;2024-02-21T08:33:31;14.50;;;6.00;;
70842;SDS011;58469;52.312;16.970;2024-02-21T08:36:32;17.00;;;6.97;;
70842;SDS011;58469;52.312;16.970;2024-02-21T08:39:35;15.48;;;4.93;;
70842;SDS011;58469;52.312;16.970;2024-02-21T08:42:36;12.73;;;5.07;;
70842;SDS011;58469;52.312;16.970;2024-02-21T08:45:38;9.43;;;5.15;;
70842;SDS011;58469;52.312;16.970;2024-02-21T08:48:39;11.50;;;5.13;;
70842;SDS011;58469;52.312;16.970;2024-02-21T08:51:39;14.80;;;5.13;;
70842;SDS011;58469;52.312;16.970;2024-02-21T08:54:40;10.17;;;5.80;;
70842;SDS011;58469;52.312;16.970;2024-02-21T08:57:40;13.77;;;5.40;;
70842;SDS011;58469;52.312;16.970;2024-02-21T09:00:40;10.83;;;4.57;;
70842;SDS011;58469;52.312;16.970;2024-02-21T09:03:41;13.83;;;5.23;;
70842;SDS011;58469;52.312;16.970;2024-02-21T09:06:41;9.80;;;4.73;;
70842;SDS011;58469;52.312;16.970;2024-02-21T09:09:41;9.05;;;4.63;;
70842;SDS011;58469;52.312;16.970;2024-02-21T09:12:42;11.77;;;5.60;;
70842;SDS011;58469;52.312;16.970;2024-02-21T09:15:43;13.60;;;5.70;;
70842;SDS011;58469;52.312;16.970;2024-02-21T09:18:43;8.77;;;4.10;;
70842;SDS011;58469;52.312;16.970;2024-02-21T09:21:43;10.83;;;5.30;;
70842;SDS011;58469;52.312;16.970;2024-02-21T09:24:44;14.77;;;4.67;;
70842;SDS011;58469;52.312;16.970;2024-02-21T09:27:45;18.23;;;6.38;;
70842;SDS011;58469;52.312;16.970;2024-02-21T09:30:45;16.40;;;5.53;;
70842;SDS011;58469;52.312;16.970;2024-02-21T09:33:46;16.97;;;6.33;;
70842;SDS011;58469;52.312;16.970;2024-02-21T09:36:46;12.93;;;5.73;;
70842;SDS011;58469;52.312;16.970;2024-02-21T09:39:46;13.83;;;5.53;;
70842;SDS011;58469;52.312;16.970;2024-02-21T09:42:48;15.73;;;5.35;;
70842;SDS011;58469;52.312;16.970;2024-02-21T09:45:48;16.40;;;5.30;;
70842;SDS011;58469;52.312;16.970;2024-02-21T09:49:09;12.82;;;5.05;;
70842;SDS011;58469;52.312;16.970;2024-02-21T09:52:21;12.68;;;5.80;;
70842;SDS011;58469;52.312;16.970;2024-02-21T09:55:22;8.80;;;4.78;;
70842;SDS011;58469;52.312;16.970;2024-02-21T09:58:26;13.17;;;4.63;;
70842;SDS011;58469;52.312;16.970;2024-02-21T10:01:27;11.07;;;4.55;;
70842;SDS011;58469;52.312;16.970;2024-02-21T10:04:28;12.53;;;5.57;;
70842;SDS011;58469;52.312;16.970;2024-02-21T10:07:29;8.40;;;4.68;;
70842;SDS011;58469;52.312;16.970;2024-02-21T10:10:30;13.57;;;5.20;;
70842;SDS011;58469;52.312;16.970;2024-02-21T10:13:41;11.57;;;4.78;;
70842;SDS011;58469;52.312;16.970;2024-02-21T10:16:42;14.13;;;5.47;;
70842;SDS011;58469;52.312;16.970;2024-02-21T10:19:42;11.80;;;6.20;;
70842;SDS011;58469;52.312;16.970;2024-02-21T10:22:42;13.90;;;5.77;;
70842;SDS011;58469;52.312;16.970;2024-02-21T10:25:43;12.03;;;6.10;;
70842;SDS011;58469;52.312;16.970;2024-02-21T10:28:46;10.80;;;5.03;;
70842;SDS011;58469;52.312;16.970;2024-02-21T10:31:48;11.93;;;5.47;;
70842;SDS011;58469;52.312;16.970;2024-02-21T10:34:48;11.33;;;5.67;;
70842;SDS011;58469;52.312;16.970;2024-02-21T10:37:51;12.95;;;4.85;;
70842;SDS011;58469;52.312;16.970;2024-02-21T10:40:55;11.80;;;4.97;;
70842;SDS011;58469;52.312;16.970;2024-02-21T10:43:58;10.32;;;5.25;;
70842;SDS011;58469;52.312;16.970;2024-02-21T10:47:07;9.98;;;4.72;;
70842;SDS011;58469;52.312;16.970;2024-02-21T10:50:09;11.50;;;5.67;;
70842;SDS011;58469;52.312;16.970;2024-02-21T10:53:18;12.32;;;5.43;;
70842;SDS011;58469;52.312;16.970;2024-02-21T10:56:29;11.23;;;5.00;;
70842;SDS011;58469;52.312;16.970;2024-02-21T10:59:31;11.77;;;5.85;;
70842;SDS011;58469;52.312;16.970;2024-02-21T11:02:34;11.65;;;5.35;;
70842;SDS011;58469;52.312;16.970;2024-02-21T11:05:34;14.18;;;4.93;;
70842;SDS011;58469;52.312;16.970;2024-02-21T11:08:36;11.77;;;5.13;;
70842;SDS011;58469;52.312;16.970;2024-02-21T11:11:40;12.23;;;5.13;;
70842;SDS011;58469;52.312;16.970;2024-02-21T11:14:41;14.83;;;5.00;;
70842;SDS011;58469;52.312;16.970;2024-02-21T11:17:44;9.02;;;4.82;;
70842;SDS011;58469;52.312;16.970;2024-02-21T11:20:53;10.80;;;4.47;;
70842;SDS011;58469;52.312;16.970;2024-02-21T11:23:54;12.03;;;5.47;;
70842;SDS011;58469;52.312;16.970;2024-02-21T11:26:56;13.43;;;5.88;;
70842;SDS011;58469;52.312;16.970;2024-02-21T11:29:57;13.77;;;5.57;;
70842;SDS011;58469;52.312;16.970;2024-02-21T11:33:07;9.68;;;5.40;;
70842;SDS011;58469;52.312;16.970;2024-02-21T11:36:08;12.55;;;5.75;;
70842;SDS011;58469;52.312;16.970;2024-02-21T11:39:09;18.77;;;6.43;;
70842;SDS011;58469;52.312;16.970;2024-02-21T11:42:10;9.80;;;5.47;;
70842;SDS011;58469;52.312;16.970;2024-02-21T11:45:14;12.98;;;5.43;;
70842;SDS011;58469;52.312;16.970;2024-02-21T11:48:15;13.73;;;5.55;;
70842;SDS011;58469;52.312;16.970;2024-02-21T11:51:24;14.33;;;5.43;;
70842;SDS011;58469;52.312;16.970;2024-02-21T11:54:25;10.05;;;5.43;;
70842;SDS011;58469;52.312;16.970;2024-02-21T11:57:25;16.93;;;5.87;;
70842;SDS011;58469;52.312;16.970;2024-02-21T12:00:26;15.70;;;5.93;;
70842;SDS011;58469;52.312;16.970;2024-02-21T12:03:26;12.33;;;5.03;;
70842;SDS011;58469;52.312;16.970;2024-02-21T12:06:27;14.57;;;6.17;;
70842;SDS011;58469;52.312;16.970;2024-02-21T12:09:27;11.55;;;5.57;;
70842;SDS011;58469;52.312;16.970;2024-02-21T12:12:27;9.38;;;5.93;;
70842;SDS011;58469;52.312;16.970;2024-02-21T12:15:28;11.83;;;5.40;;
70842;SDS011;58469;52.312;16.970;2024-02-21T12:18:29;15.23;;;5.77;;
70842;SDS011;58469;52.312;16.970;2024-02-21T12:21:30;11.10;;;5.43;;
70842;SDS011;58469;52.312;16.970;2024-02-21T12:24:32;10.10;;;5.27;;
70842;SDS011;58469;52.312;16.970;2024-02-21T12:27:35;16.88;;;6.55;;
70842;SDS011;58469;52.312;16.970;2024-02-21T12:30:36;13.40;;;6.20;;
70842;SDS011;58469;52.312;16.970;2024-02-21T12:33:39;16.65;;;6.43;;
70842;SDS011;58469;52.312;16.970;2024-02-21T12:36:43;14.23;;;5.83;;
70842;SDS011;58469;52.312;16.970;2024-02-21T12:39:44;15.35;;;6.25;;
70842;SDS011;58469;52.312;16.970;2024-02-21T12:42:45;16.17;;;5.87;;
70842;SDS011;58469;52.312;16.970;2024-02-21T12:45:45;12.18;;;5.88;;
70842;SDS011;58469;52.312;16.970;2024-02-21T12:48:46;13.33;;;6.30;;
70842;SDS011;58469;52.312;16.970;2024-02-21T12:51:46;14.83;;;5.97;;
70842;SDS011;58469;52.312;16.970;2024-02-21T12:54:47;14.53;;;5.47;;
70842;SDS011;58469;52.312;16.970;2024-02-21T12:57:47;12.70;;;6.38;;
70842;SDS011;58469;52.312;16.970;2024-02-21T13:00:48;11.50;;;5.90;;
70842;SDS011;58469;52.312;16.970;2024-02-21T13:03:49;11.27;;;5.22;;
70842;SDS011;58469;52.312;16.970;2024-02-21T13:06:49;10.10;;;5.25;;
70842;SDS011;58469;52.312;16.970;2024-02-21T13:09:50;14.77;;;6.13;;
70842;SDS011;58469;52.312;16.970;2024-02-21T13:12:50;15.30;;;6.43;;
70842;SDS011;58469;52.312;16.970;2024-02-21T13:15:50;14.23;;;5.97;;
70842;SDS011;58469;52.312;16.970;2024-02-21T13:18:51;14.90;;;7.13;;
70842;SDS011;58469;52.312;16.970;2024-02-21T13:21:51;17.53;;;6.97;;
70842;SDS011;58469;52.312;16.970;2024-02-21T13:24:52;14.75;;;6.53;;
70842;SDS011;58469;52.312;16.970;2024-02-21T13:27:52;12.60;;;6.50;;
70842;SDS011;58469;52.312;16.970;2024-02-21T13:30:53;14.60;;;6.93;;
70842;SDS011;58469;52.312;16.970;2024-02-21T13:33:53;13.30;;;6.37;;
70842;SDS011;58469;52.312;16.970;2024-02-21T13:36:53;13.97;;;6.23;;
70842;SDS011;58469;52.312;16.970;2024-02-21T13:39:54;12.47;;;6.43;;
70842;SDS011;58469;52.312;16.970;2024-02-21T13:42:55;12.05;;;5.65;;
70842;SDS011;58469;52.312;16.970;2024-02-21T13:45:59;12.10;;;6.23;;
70842;SDS011;58469;52.312;16.970;2024-02-21T13:49:04;12.23;;;5.70;;
70842;SDS011;58469;52.312;16.970;2024-02-21T13:52:06;15.98;;;6.43;;
70842;SDS011;58469;52.312;16.970;2024-02-21T13:55:09;13.13;;;6.70;;
70842;SDS011;58469;52.312;16.970;2024-02-21T13:58:09;15.25;;;6.72;;
70842;SDS011;58469;52.312;16.970;2024-02-21T14:01:10;10.83;;;6.53;;
70842;SDS011;58469;52.312;16.970;2024-02-21T14:04:10;13.80;;;6.73;;
70842;SDS011;58469;52.312;16.970;2024-02-21T14:07:10;9.70;;;5.70;;
70842;SDS011;58469;52.312;16.970;2024-02-21T14:10:11;12.73;;;6.33;;
70842;SDS011;58469;52.312;16.970;2024-02-21T14:13:11;13.07;;;6.63;;
70842;SDS011;58469;52.312;16.970;2024-02-21T14:16:11;10.30;;;5.60;;
70842;SDS011;58469;52.312;16.970;2024-02-21T14:19:13;10.20;;;5.53;;
70842;SDS011;58469;52.312;16.970;2024-02-21T14:22:14;12.13;;;5.80;;
70842;SDS011;58469;52.312;16.970;2024-02-21T14:25:14;10.80;;;5.83;;
70842;SDS011;58469;52.312;16.970;2024-02-21T14:28:15;12.63;;;5.93;;
70842;SDS011;58469;52.312;16.970;2024-02-21T14:31:18;12.98;;;6.53;;
70842;SDS011;58469;52.312;16.970;2024-02-21T14:34:18;8.80;;;5.77;;
70842;SDS011;58469;52.312;16.970;2024-02-21T14:37:18;12.18;;;5.30;;
70842;SDS011;58469;52.312;16.970;2024-02-21T14:40:19;11.95;;;5.25;;
70842;SDS011;58469;52.312;16.970;2024-02-21T14:43:20;12.77;;;5.87;;
70842;SDS011;58469;52.312;16.970;2024-02-21T14:46:24;11.05;;;5.55;;
70842;SDS011;58469;52.312;16.970;2024-02-21T14:49:24;11.33;;;5.63;;
70842;SDS011;58469;52.312;16.970;2024-02-21T14:52:27;10.68;;;6.18;;
70842;SDS011;58469;52.312;16.970;2024-02-21T14:55:27;12.43;;;5.87;;
70842;SDS011;58469;52.312;16.970;2024-02-21T14:58:28;12.73;;;5.37;;
70842;SDS011;58469;52.312;16.970;2024-02-21T15:01:28;12.73;;;6.30;;
70842;SDS011;58469;52.312;16.970;2024-02-21T15:04:28;12.13;;;5.53;;
70842;SDS011;58469;52.312;16.970;2024-02-21T15:07:29;11.03;;;5.90;;
70842;SDS011;58469;52.312;16.970;2024-02-21T15:10:29;12.67;;;5.93;;
70842;SDS011;58469;52.312;16.970;2024-02-21T15:13:30;14.35;;;6.22;;
70842;SDS011;58469;52.312;16.970;2024-02-21T15:16:31;11.67;;;5.13;;
70842;SDS011;58469;52.312;16.970;2024-02-21T15:19:31;11.73;;;5.73;;
70842;SDS011;58469;52.312;16.970;2024-02-21T15:22:33;12.43;;;5.40;;
70842;SDS011;58469;52.312;16.970;2024-02-21T15:25:34;12.93;;;5.50;;
70842;SDS011;58469;52.312;16.970;2024-02-21T15:28:35;14.63;;;6.23;;
70842;SDS011;58469;52.312;16.970;2024-02-21T15:31:35;9.97;;;5.73;;
70842;SDS011;58469;52.312;16.970;2024-02-21T15:34:36;15.93;;;6.50;;
70842;SDS011;58469;52.312;16.970;2024-02-21T15:37:36;10.07;;;5.55;;
70842;SDS011;58469;52.312;16.970;2024-02-21T15:40:36;14.53;;;5.90;;
70842;SDS011;58469;52.312;16.970;2024-02-21T15:43:37;13.83;;;7.23;;
70842;SDS011;58469;52.312;16.970;2024-02-21T15:46:38;12.40;;;6.63;;
70842;SDS011;58469;52.312;16.970;2024-02-21T15:49:38;13.10;;;6.50;;
70842;SDS011;58469;52.312;16.970;2024-02-21T15:52:38;14.57;;;7.00;;
70842;SDS011;58469;52.312;16.970;2024-02-21T15:55:39;11.33;;;7.23;;
70842;SDS011;58469;52.312;16.970;2024-02-21T15:58:39;17.73;;;7.40;;
70842;SDS011;58469;52.312;16.970;2024-02-21T16:01:40;14.23;;;6.93;;
70842;SDS011;58469;52.312;16.970;2024-02-21T16:04:42;13.68;;;7.18;;
70842;SDS011;58469;52.312;16.970;2024-02-21T16:07:43;18.55;;;7.40;;
70842;SDS011;58469;52.312;16.970;2024-02-21T16:10:43;12.87;;;6.40;;
70842;SDS011;58469;52.312;16.970;2024-02-21T16:13:44;11.47;;;6.93;;
70842;SDS011;58469;52.312;16.970;2024-02-21T16:16:46;13.45;;;7.10;;
70842;SDS011;58469;52.312;16.970;2024-02-21T16:19:48;15.37;;;7.63;;
70842;SDS011;58469;52.312;16.970;2024-02-21T16:22:49;9.40;;;6.30;;
70842;SDS011;58469;52.312;16.970;2024-02-21T16:25:49;10.60;;;6.17;;
70842;SDS011;58469;52.312;16.970;2024-02-21T16:28:49;13.70;;;7.70;;
70842;SDS011;58469;52.312;16.970;2024-02-21T16:31:50;13.07;;;7.03;;
70842;SDS011;58469;52.312;16.970;2024-02-21T16:34:50;13.03;;;7.50;;
70842;SDS011;58469;52.312;16.970;2024-02-21T16:37:51;17.70;;;8.18;;
70842;SDS011;58469;52.312;16.970;2024-02-21T16:40:51;21.47;;;10.20;;
70842;SDS011;58469;52.312;16.970;2024-02-21T16:43:52;21.47;;;11.57;;
70842;SDS011;58469;52.312;16.970;2024-02-21T16:46:52;16.60;;;9.87;;
70842;SDS011;58469;52.312;16.970;2024-02-21T16:49:53;16.05;;;9.82;;
70842;SDS011;58469;52.312;16.970;2024-02-21T16:52:53;23.23;;;10.80;;
70842;SDS011;58469;52.312;16.970;2024-02-21T16:55:54;20.90;;;11.77;;
70842;SDS011;58469;52.312;16.970;2024-02-21T16:58:54;20.10;;;10.60;;
70842;SDS011;58469;52.312;16.970;2024-02-21T17:01:55;16.60;;;8.87;;
70842;SDS011;58469;52.312;16.970;2024-02-21T17:04:55;14.90;;;9.27;;
70842;SDS011;58469;52.312;16.970;2024-02-21T17:07:56;20.73;;;9.23;;
70842;SDS011;58469;52.312;16.970;2024-02-21T17:10:56;16.07;;;9.30;;
70842;SDS011;58469;52.312;16.970;2024-02-21T17:13:58;19.50;;;10.10;;
70842;SDS011;58469;52.312;16.970;2024-02-21T17:16:58;21.67;;;11.10;;
70842;SDS011;58469;52.312;16.970;2024-02-21T17:19:59;15.97;;;7.90;;
70842;SDS011;58469;52.312;16.970;2024-02-21T17:22:59;17.40;;;9.53;;
70842;SDS011;58469;52.312;16.970;2024-02-21T17:26:00;18.53;;;10.97;;
70842;SDS011;58469;52.312;16.970;2024-02-21T17:29:00;21.70;;;10.37;;
70842;SDS011;58469;52.312;16.970;2024-02-21T17:32:01;17.77;;;9.95;;
70842;SDS011;58469;52.312;16.970;2024-02-21T17:35:01;15.07;;;9.43;;
70842;SDS011;58469;52.312;16.970;2024-02-21T17:38:05;18.60;;;10.85;;